sensor_id;sensor_type;location;lat;lon;timestamp;temperature;humidity
9847;DHT22;68671;50.084;8.794;2023-09-18T00:00:25;23.50;99.90
9847;DHT22;68671;50.084;8.794;2023-09-18T00:02:52;23.40;99.90
9847;DHT22;68671;50.084;8.794;2023-09-18T00:05:19;23.30;99.90
9847;DHT22;68671;50.084;8.794;2023-09-18T00:07:46;23.30;99.90
9847;DHT22;68671;50.084;8.794;2023-09-18T00:10:13;23.30;99.90
9847;DHT22;68671;50.084;8.794;2023-09-18T00:12:40;23.30;99.90
9847;DHT22;68671;50.084;8.794;2023-09-18T00:15:09;23.30;99.90
9847;DHT22;68671;50.084;8.794;2023-09-18T00:17:38;23.20;99.90
9847;DHT22;68671;50.084;8.794;2023-09-18T00:20:06;23.30;99.90
9847;DHT22;68671;50.084;8.794;2023-09-18T00:22:34;23.20;99.90
9847;DHT22;68671;50.084;8.794;2023-09-18T00:25:01;23.20;99.90
9847;DHT22;68671;50.084;8.794;2023-09-18T00:27:28;23.20;99.90
9847;DHT22;68671;50.084;8.794;2023-09-18T00:29:55;23.10;99.90
9847;DHT22;68671;50.084;8.794;2023-09-18T00:32:22;23.10;99.90
9847;DHT22;68671;50.084;8.794;2023-09-18T00:34:51;23.10;99.90
9847;DHT22;68671;50.084;8.794;2023-09-18T00:37:17;23.00;99.90
9847;DHT22;68671;50.084;8.794;2023-09-18T00:39:44;23.00;99.90
9847;DHT22;68671;50.084;8.794;2023-09-18T00:42:11;23.00;99.90
9847;DHT22;68671;50.084;8.794;2023-09-18T00:44:39;23.00;99.90
9847;DHT22;68671;50.084;8.794;2023-09-18T00:47:06;23.00;99.90
9847;DHT22;68671;50.084;8.794;2023-09-18T00:49:35;23.00;99.90
9847;DHT22;68671;50.084;8.794;2023-09-18T00:52:05;22.90;99.90
9847;DHT22;68671;50.084;8.794;2023-09-18T00:54:33;22.90;99.90
9847;DHT22;68671;50.084;8.794;2023-09-18T00:57:01;22.90;99.90
9847;DHT22;68671;50.084;8.794;2023-09-18T00:59:28;22.90;99.90
9847;DHT22;68671;50.084;8.794;2023-09-18T01:01:55;22.90;99.90
9847;DHT22;68671;50.084;8.794;2023-09-18T01:04:22;22.90;99.90
9847;DHT22;68671;50.084;8.794;2023-09-18T01:06:50;22.90;99.90
9847;DHT22;68671;50.084;8.794;2023-09-18T01:09:19;22.80;99.90
9847;DHT22;68671;50.084;8.794;2023-09-18T01:11:52;22.90;99.90
9847;DHT22;68671;50.084;8.794;2023-09-18T01:14:28;22.90;99.90
9847;DHT22;68671;50.084;8.794;2023-09-18T01:16:57;22.80;99.90
9847;DHT22;68671;50.084;8.794;2023-09-18T01:19:38;22.80;99.90
9847;DHT22;68671;50.084;8.794;2023-09-18T01:22:05;22.90;99.90
9847;DHT22;68671;50.084;8.794;2023-09-18T01:24:35;22.90;99.90
9847;DHT22;68671;50.084;8.794;2023-09-18T01:27:03;22.80;99.90
9847;DHT22;68671;50.084;8.794;2023-09-18T01:29:31;22.80;99.90
9847;DHT22;68671;50.084;8.794;2023-09-18T01:31:58;22.80;99.90
9847;DHT22;68671;50.084;8.794;2023-09-18T01:34:26;22.80;99.90
9847;DHT22;68671;50.084;8.794;2023-09-18T01:36:57;22.80;99.90
9847;DHT22;68671;50.084;8.794;2023-09-18T01:39:25;22.70;99.90
9847;DHT22;68671;50.084;8.794;2023-09-18T01:41:54;22.80;99.90
9847;DHT22;68671;50.084;8.794;2023-09-18T01:44:21;22.80;99.90
9847;DHT22;68671;50.084;8.794;2023-09-18T01:46:48;22.80;99.90
9847;DHT22;68671;50.084;8.794;2023-09-18T01:49:19;22.90;99.90
9847;DHT22;68671;50.084;8.794;2023-09-18T01:51:52;22.90;99.90
9847;DHT22;68671;50.084;8.794;2023-09-18T01:54:19;22.90;99.90
9847;DHT22;68671;50.084;8.794;2023-09-18T01:56:46;22.80;99.90
9847;DHT22;68671;50.084;8.794;2023-09-18T01:59:14;22.80;99.90
9847;DHT22;68671;50.084;8.794;2023-09-18T02:01:41;22.90;99.90
9847;DHT22;68671;50.084;8.794;2023-09-18T02:04:08;22.90;99.90
9847;DHT22;68671;50.084;8.794;2023-09-18T02:06:35;22.90;99.90
9847;DHT22;68671;50.084;8.794;2023-09-18T02:09:02;22.90;99.90
9847;DHT22;68671;50.084;8.794;2023-09-18T02:11:29;22.90;99.90
9847;DHT22;68671;50.084;8.794;2023-09-18T02:13:56;22.90;99.90
9847;DHT22;68671;50.084;8.794;2023-09-18T02:16:25;22.90;99.90
9847;DHT22;68671;50.084;8.794;2023-09-18T02:18:54;22.90;99.90
9847;DHT22;68671;50.084;8.794;2023-09-18T02:21:22;23.00;99.90
9847;DHT22;68671;50.084;8.794;2023-09-18T02:23:49;23.00;99.90
9847;DHT22;68671;50.084;8.794;2023-09-18T02:26:17;23.10;99.90
9847;DHT22;68671;50.084;8.794;2023-09-18T02:28:44;23.00;99.90
9847;DHT22;68671;50.084;8.794;2023-09-18T02:31:11;23.10;99.90
9847;DHT22;68671;50.084;8.794;2023-09-18T02:33:39;23.10;99.90
9847;DHT22;68671;50.084;8.794;2023-09-18T02:36:07;23.20;99.90
9847;DHT22;68671;50.084;8.794;2023-09-18T02:38:34;23.20;99.90
9847;DHT22;68671;50.084;8.794;2023-09-18T02:41:01;23.30;99.90
9847;DHT22;68671;50.084;8.794;2023-09-18T02:43:28;23.30;99.90
9847;DHT22;68671;50.084;8.794;2023-09-18T02:45:55;23.30;99.90
9847;DHT22;68671;50.084;8.794;2023-09-18T02:48:22;23.40;99.90
9847;DHT22;68671;50.084;8.794;2023-09-18T02:50:50;23.40;99.90
9847;DHT22;68671;50.084;8.794;2023-09-18T02:53:19;23.40;99.90
9847;DHT22;68671;50.084;8.794;2023-09-18T02:55:46;23.50;99.90
9847;DHT22;68671;50.084;8.794;2023-09-18T02:58:13;23.50;99.90
9847;DHT22;68671;50.084;8.794;2023-09-18T03:00:42;23.50;99.90
9847;DHT22;68671;50.084;8.794;2023-09-18T03:03:09;23.50;99.90
9847;DHT22;68671;50.084;8.794;2023-09-18T03:05:36;23.50;99.90
9847;DHT22;68671;50.084;8.794;2023-09-18T03:08:05;23.50;99.90
9847;DHT22;68671;50.084;8.794;2023-09-18T03:10:33;23.60;99.90
9847;DHT22;68671;50.084;8.794;2023-09-18T03:13:01;23.60;99.90
9847;DHT22;68671;50.084;8.794;2023-09-18T03:15:28;23.70;99.90
9847;DHT22;68671;50.084;8.794;2023-09-18T03:17:55;23.70;99.90
9847;DHT22;68671;50.084;8.794;2023-09-18T03:20:22;23.70;99.90
9847;DHT22;68671;50.084;8.794;2023-09-18T03:22:50;23.80;99.90
9847;DHT22;68671;50.084;8.794;2023-09-18T03:25:19;23.80;99.90
9847;DHT22;68671;50.084;8.794;2023-09-18T03:27:47;23.70;99.90
9847;DHT22;68671;50.084;8.794;2023-09-18T03:30:14;23.70;99.90
9847;DHT22;68671;50.084;8.794;2023-09-18T03:32:41;23.80;99.90
9847;DHT22;68671;50.084;8.794;2023-09-18T03:35:08;23.80;99.90
9847;DHT22;68671;50.084;8.794;2023-09-18T03:37:43;23.80;99.90
9847;DHT22;68671;50.084;8.794;2023-09-18T03:40:10;23.80;99.90
9847;DHT22;68671;50.084;8.794;2023-09-18T03:42:39;23.80;99.90
9847;DHT22;68671;50.084;8.794;2023-09-18T03:45:07;23.80;99.90
9847;DHT22;68671;50.084;8.794;2023-09-18T03:47:35;23.80;99.90
9847;DHT22;68671;50.084;8.794;2023-09-18T03:50:02;23.80;99.90
9847;DHT22;68671;50.084;8.794;2023-09-18T03:52:29;23.90;99.90
9847;DHT22;68671;50.084;8.794;2023-09-18T03:54:56;23.90;99.90
9847;DHT22;68671;50.084;8.794;2023-09-18T03:57:24;24.00;99.90
9847;DHT22;68671;50.084;8.794;2023-09-18T03:59:52;24.00;99.90
9847;DHT22;68671;50.084;8.794;2023-09-18T04:02:20;24.00;99.90
9847;DHT22;68671;50.084;8.794;2023-09-18T04:04:47;24.00;99.90
9847;DHT22;68671;50.084;8.794;2023-09-18T04:07:14;24.00;99.90
9847;DHT22;68671;50.084;8.794;2023-09-18T04:09:42;24.00;99.90
9847;DHT22;68671;50.084;8.794;2023-09-18T04:12:09;24.00;99.90
9847;DHT22;68671;50.084;8.794;2023-09-18T04:14:36;24.10;99.90
9847;DHT22;68671;50.084;8.794;2023-09-18T04:17:04;24.10;99.90
9847;DHT22;68671;50.084;8.794;2023-09-18T04:19:31;24.10;99.90
9847;DHT22;68671;50.084;8.794;2023-09-18T04:21:58;24.10;99.90
9847;DHT22;68671;50.084;8.794;2023-09-18T04:24:25;24.10;99.90
9847;DHT22;68671;50.084;8.794;2023-09-18T04:26:52;24.10;99.90
9847;DHT22;68671;50.084;8.794;2023-09-18T04:29:19;24.10;99.90
9847;DHT22;68671;50.084;8.794;2023-09-18T04:31:46;24.00;99.90
9847;DHT22;68671;50.084;8.794;2023-09-18T04:34:15;24.00;99.90
9847;DHT22;68671;50.084;8.794;2023-09-18T04:36:43;24.00;99.90
9847;DHT22;68671;50.084;8.794;2023-09-18T04:39:10;24.00;99.90
9847;DHT22;68671;50.084;8.794;2023-09-18T04:41:37;24.00;99.90
9847;DHT22;68671;50.084;8.794;2023-09-18T04:44:04;24.00;99.90
9847;DHT22;68671;50.084;8.794;2023-09-18T04:46:33;24.10;99.90
9847;DHT22;68671;50.084;8.794;2023-09-18T04:49:00;24.10;99.90
9847;DHT22;68671;50.084;8.794;2023-09-18T04:51:30;24.10;99.90
9847;DHT22;68671;50.084;8.794;2023-09-18T04:53:58;24.10;99.90
9847;DHT22;68671;50.084;8.794;2023-09-18T04:56:25;24.10;99.90
9847;DHT22;68671;50.084;8.794;2023-09-18T04:58:52;24.10;99.90
9847;DHT22;68671;50.084;8.794;2023-09-18T05:01:19;24.20;99.90
9847;DHT22;68671;50.084;8.794;2023-09-18T05:03:46;24.20;99.90
9847;DHT22;68671;50.084;8.794;2023-09-18T05:06:14;24.20;99.90
9847;DHT22;68671;50.084;8.794;2023-09-18T05:08:43;24.10;99.90
9847;DHT22;68671;50.084;8.794;2023-09-18T05:11:10;24.10;99.90
9847;DHT22;68671;50.084;8.794;2023-09-18T05:13:37;24.10;99.90
9847;DHT22;68671;50.084;8.794;2023-09-18T05:16:05;24.10;99.90
9847;DHT22;68671;50.084;8.794;2023-09-18T05:18:32;24.10;99.90
9847;DHT22;68671;50.084;8.794;2023-09-18T05:20:59;24.10;99.90
9847;DHT22;68671;50.084;8.794;2023-09-18T05:23:26;24.10;99.90
9847;DHT22;68671;50.084;8.794;2023-09-18T05:25:54;24.10;99.90
9847;DHT22;68671;50.084;8.794;2023-09-18T05:28:21;24.10;99.90
9847;DHT22;68671;50.084;8.794;2023-09-18T05:30:48;24.10;99.90
9847;DHT22;68671;50.084;8.794;2023-09-18T05:33:15;24.10;99.90
9847;DHT22;68671;50.084;8.794;2023-09-18T05:35:43;24.10;99.90
9847;DHT22;68671;50.084;8.794;2023-09-18T05:38:12;24.10;99.90
9847;DHT22;68671;50.084;8.794;2023-09-18T05:40:39;24.20;99.90
9847;DHT22;68671;50.084;8.794;2023-09-18T05:43:08;24.10;99.90
9847;DHT22;68671;50.084;8.794;2023-09-18T05:45:35;24.20;99.90
9847;DHT22;68671;50.084;8.794;2023-09-18T05:48:03;24.10;99.90
9847;DHT22;68671;50.084;8.794;2023-09-18T05:50:30;24.20;99.90
9847;DHT22;68671;50.084;8.794;2023-09-18T05:52:58;24.20;99.90
9847;DHT22;68671;50.084;8.794;2023-09-18T05:55:29;24.20;99.90
9847;DHT22;68671;50.084;8.794;2023-09-18T05:57:56;24.20;99.90
9847;DHT22;68671;50.084;8.794;2023-09-18T06:00:25;24.20;99.90
9847;DHT22;68671;50.084;8.794;2023-09-18T06:02:53;24.20;99.90
9847;DHT22;68671;50.084;8.794;2023-09-18T06:05:20;24.20;99.90
9847;DHT22;68671;50.084;8.794;2023-09-18T06:07:48;24.20;99.90
9847;DHT22;68671;50.084;8.794;2023-09-18T06:10:15;24.20;99.90
9847;DHT22;68671;50.084;8.794;2023-09-18T06:12:43;24.20;99.90
9847;DHT22;68671;50.084;8.794;2023-09-18T06:15:10;24.20;99.90
9847;DHT22;68671;50.084;8.794;2023-09-18T06:17:40;24.20;99.90
9847;DHT22;68671;50.084;8.794;2023-09-18T06:20:08;24.20;99.90
9847;DHT22;68671;50.084;8.794;2023-09-18T06:22:37;24.20;99.90
9847;DHT22;68671;50.084;8.794;2023-09-18T06:25:05;24.20;99.90
9847;DHT22;68671;50.084;8.794;2023-09-18T06:27:34;24.20;99.90
9847;DHT22;68671;50.084;8.794;2023-09-18T06:30:02;24.20;99.90
9847;DHT22;68671;50.084;8.794;2023-09-18T06:32:29;24.10;99.90
9847;DHT22;68671;50.084;8.794;2023-09-18T06:34:58;24.20;99.90
9847;DHT22;68671;50.084;8.794;2023-09-18T06:37:25;24.10;99.90
9847;DHT22;68671;50.084;8.794;2023-09-18T06:39:52;24.10;99.90
9847;DHT22;68671;50.084;8.794;2023-09-18T06:42:19;24.10;99.90
9847;DHT22;68671;50.084;8.794;2023-09-18T06:44:45;24.20;99.90
9847;DHT22;68671;50.084;8.794;2023-09-18T06:47:12;24.20;99.90
9847;DHT22;68671;50.084;8.794;2023-09-18T06:49:40;24.30;99.90
9847;DHT22;68671;50.084;8.794;2023-09-18T06:52:09;24.30;99.90
9847;DHT22;68671;50.084;8.794;2023-09-18T06:54:36;24.30;99.90
9847;DHT22;68671;50.084;8.794;2023-09-18T06:57:03;24.40;99.90
9847;DHT22;68671;50.084;8.794;2023-09-18T06:59:30;24.30;99.90
9847;DHT22;68671;50.084;8.794;2023-09-18T07:01:59;24.40;99.90
9847;DHT22;68671;50.084;8.794;2023-09-18T07:04:26;24.40;99.90
9847;DHT22;68671;50.084;8.794;2023-09-18T07:06:53;24.40;99.90
9847;DHT22;68671;50.084;8.794;2023-09-18T07:09:23;24.40;99.90
9847;DHT22;68671;50.084;8.794;2023-09-18T07:11:51;24.50;99.90
9847;DHT22;68671;50.084;8.794;2023-09-18T07:14:18;24.60;99.90
9847;DHT22;68671;50.084;8.794;2023-09-18T07:16:45;24.60;99.90
9847;DHT22;68671;50.084;8.794;2023-09-18T07:19:12;24.60;99.90
9847;DHT22;68671;50.084;8.794;2023-09-18T07:21:42;24.70;99.90
9847;DHT22;68671;50.084;8.794;2023-09-18T07:24:09;24.80;99.90
9847;DHT22;68671;50.084;8.794;2023-09-18T07:26:43;24.80;99.90
9847;DHT22;68671;50.084;8.794;2023-09-18T07:29:11;24.90;99.90
9847;DHT22;68671;50.084;8.794;2023-09-18T07:31:38;25.10;99.90
9847;DHT22;68671;50.084;8.794;2023-09-18T07:34:06;25.20;99.90
9847;DHT22;68671;50.084;8.794;2023-09-18T07:36:32;25.40;99.90
9847;DHT22;68671;50.084;8.794;2023-09-18T07:38:59;25.50;99.90
9847;DHT22;68671;50.084;8.794;2023-09-18T07:41:26;25.50;99.90
9847;DHT22;68671;50.084;8.794;2023-09-18T07:43:55;25.60;99.90
9847;DHT22;68671;50.084;8.794;2023-09-18T07:46:23;25.70;99.90
9847;DHT22;68671;50.084;8.794;2023-09-18T07:48:49;25.80;99.90
9847;DHT22;68671;50.084;8.794;2023-09-18T07:51:16;25.80;99.90
9847;DHT22;68671;50.084;8.794;2023-09-18T07:53:44;25.90;99.90
9847;DHT22;68671;50.084;8.794;2023-09-18T07:56:11;25.90;99.90
9847;DHT22;68671;50.084;8.794;2023-09-18T07:58:38;26.00;99.90
9847;DHT22;68671;50.084;8.794;2023-09-18T08:01:07;25.90;99.90
9847;DHT22;68671;50.084;8.794;2023-09-18T08:03:35;26.00;99.90
9847;DHT22;68671;50.084;8.794;2023-09-18T08:06:02;25.90;99.90
9847;DHT22;68671;50.084;8.794;2023-09-18T08:08:30;26.00;99.90
9847;DHT22;68671;50.084;8.794;2023-09-18T08:11:00;26.00;99.90
9847;DHT22;68671;50.084;8.794;2023-09-18T08:13:27;26.00;99.90
9847;DHT22;68671;50.084;8.794;2023-09-18T08:15:55;25.90;99.90
9847;DHT22;68671;50.084;8.794;2023-09-18T08:18:23;26.00;99.90
9847;DHT22;68671;50.084;8.794;2023-09-18T08:20:53;25.90;99.90
9847;DHT22;68671;50.084;8.794;2023-09-18T08:23:23;26.00;99.90
9847;DHT22;68671;50.084;8.794;2023-09-18T08:25:49;26.00;99.90
9847;DHT22;68671;50.084;8.794;2023-09-18T08:28:21;26.00;99.90
9847;DHT22;68671;50.084;8.794;2023-09-18T08:30:48;26.00;99.90
9847;DHT22;68671;50.084;8.794;2023-09-18T08:33:15;26.00;99.90
9847;DHT22;68671;50.084;8.794;2023-09-18T08:35:43;25.90;99.90
9847;DHT22;68671;50.084;8.794;2023-09-18T08:38:12;25.90;99.90
9847;DHT22;68671;50.084;8.794;2023-09-18T08:40:40;25.90;99.90
9847;DHT22;68671;50.084;8.794;2023-09-18T08:43:08;25.90;99.90
9847;DHT22;68671;50.084;8.794;2023-09-18T08:45:40;25.90;99.90
9847;DHT22;68671;50.084;8.794;2023-09-18T08:48:09;25.90;99.90
9847;DHT22;68671;50.084;8.794;2023-09-18T08:50:38;25.90;99.90
9847;DHT22;68671;50.084;8.794;2023-09-18T08:53:07;26.00;99.90
9847;DHT22;68671;50.084;8.794;2023-09-18T08:55:34;26.00;99.90
9847;DHT22;68671;50.084;8.794;2023-09-18T08:58:02;26.00;99.90
9847;DHT22;68671;50.084;8.794;2023-09-18T09:00:29;26.00;99.90
9847;DHT22;68671;50.084;8.794;2023-09-18T09:02:56;26.00;99.90
9847;DHT22;68671;50.084;8.794;2023-09-18T09:05:24;26.00;99.90
9847;DHT22;68671;50.084;8.794;2023-09-18T09:07:52;26.10;99.90
9847;DHT22;68671;50.084;8.794;2023-09-18T09:10:21;26.10;99.90
9847;DHT22;68671;50.084;8.794;2023-09-18T09:12:50;26.10;99.90
9847;DHT22;68671;50.084;8.794;2023-09-18T09:15:18;26.10;99.90
9847;DHT22;68671;50.084;8.794;2023-09-18T09:17:45;26.20;99.90
9847;DHT22;68671;50.084;8.794;2023-09-18T09:20:14;26.20;99.90
9847;DHT22;68671;50.084;8.794;2023-09-18T09:22:42;26.30;99.90
9847;DHT22;68671;50.084;8.794;2023-09-18T09:25:27;26.30;99.90
9847;DHT22;68671;50.084;8.794;2023-09-18T09:27:57;26.40;99.90
9847;DHT22;68671;50.084;8.794;2023-09-18T09:30:28;26.50;99.90
9847;DHT22;68671;50.084;8.794;2023-09-18T09:32:56;26.50;99.90
9847;DHT22;68671;50.084;8.794;2023-09-18T09:35:24;26.50;99.90
9847;DHT22;68671;50.084;8.794;2023-09-18T09:37:54;26.50;99.90
9847;DHT22;68671;50.084;8.794;2023-09-18T09:40:23;26.60;99.90
9847;DHT22;68671;50.084;8.794;2023-09-18T09:42:54;26.60;99.90
9847;DHT22;68671;50.084;8.794;2023-09-18T09:45:26;26.60;99.90
9847;DHT22;68671;50.084;8.794;2023-09-18T09:47:55;26.60;99.90
9847;DHT22;68671;50.084;8.794;2023-09-18T09:50:22;26.70;99.90
9847;DHT22;68671;50.084;8.794;2023-09-18T09:52:52;26.80;99.90
9847;DHT22;68671;50.084;8.794;2023-09-18T09:55:25;26.80;99.90
9847;DHT22;68671;50.084;8.794;2023-09-18T09:57:56;26.90;99.90
9847;DHT22;68671;50.084;8.794;2023-09-18T10:00:28;26.90;99.90
9847;DHT22;68671;50.084;8.794;2023-09-18T10:03:00;26.90;99.90
9847;DHT22;68671;50.084;8.794;2023-09-18T10:05:30;27.00;99.90
9847;DHT22;68671;50.084;8.794;2023-09-18T10:07:59;27.10;99.90
9847;DHT22;68671;50.084;8.794;2023-09-18T10:10:29;27.10;99.90
9847;DHT22;68671;50.084;8.794;2023-09-18T10:13:02;27.20;99.90
9847;DHT22;68671;50.084;8.794;2023-09-18T10:15:34;27.30;99.90
9847;DHT22;68671;50.084;8.794;2023-09-18T10:18:05;27.30;99.90
9847;DHT22;68671;50.084;8.794;2023-09-18T10:20:37;27.30;99.90
9847;DHT22;68671;50.084;8.794;2023-09-18T10:23:14;27.40;99.90
9847;DHT22;68671;50.084;8.794;2023-09-18T10:25:48;27.40;99.90
9847;DHT22;68671;50.084;8.794;2023-09-18T10:28:19;27.50;99.90
9847;DHT22;68671;50.084;8.794;2023-09-18T10:30:47;27.50;99.90
9847;DHT22;68671;50.084;8.794;2023-09-18T10:33:16;27.50;99.90
9847;DHT22;68671;50.084;8.794;2023-09-18T10:35:43;27.50;99.90
9847;DHT22;68671;50.084;8.794;2023-09-18T10:38:12;27.50;99.90
9847;DHT22;68671;50.084;8.794;2023-09-18T10:40:41;27.60;99.90
9847;DHT22;68671;50.084;8.794;2023-09-18T10:43:11;27.50;99.90
9847;DHT22;68671;50.084;8.794;2023-09-18T10:45:40;27.50;99.90
9847;DHT22;68671;50.084;8.794;2023-09-18T10:48:08;27.50;99.90
9847;DHT22;68671;50.084;8.794;2023-09-18T10:50:35;27.60;99.90
9847;DHT22;68671;50.084;8.794;2023-09-18T10:53:05;27.60;99.90
9847;DHT22;68671;50.084;8.794;2023-09-18T10:55:32;27.60;99.90
9847;DHT22;68671;50.084;8.794;2023-09-18T10:58:00;27.60;99.90
9847;DHT22;68671;50.084;8.794;2023-09-18T11:00:29;27.60;99.90
9847;DHT22;68671;50.084;8.794;2023-09-18T11:03:11;27.60;99.90
9847;DHT22;68671;50.084;8.794;2023-09-18T11:05:39;27.40;99.90
9847;DHT22;68671;50.084;8.794;2023-09-18T11:08:25;27.40;99.90
9847;DHT22;68671;50.084;8.794;2023-09-18T11:11:00;27.30;99.90
9847;DHT22;68671;50.084;8.794;2023-09-18T11:13:36;27.30;99.90
9847;DHT22;68671;50.084;8.794;2023-09-18T11:16:18;27.30;99.90
9847;DHT22;68671;50.084;8.794;2023-09-18T11:18:52;27.30;99.90
9847;DHT22;68671;50.084;8.794;2023-09-18T11:21:25;27.30;99.90
9847;DHT22;68671;50.084;8.794;2023-09-18T11:24:02;27.40;99.90
9847;DHT22;68671;50.084;8.794;2023-09-18T11:26:40;27.40;99.90
9847;DHT22;68671;50.084;8.794;2023-09-18T11:29:14;27.40;99.90
9847;DHT22;68671;50.084;8.794;2023-09-18T11:31:47;27.40;99.90
9847;DHT22;68671;50.084;8.794;2023-09-18T11:34:28;27.50;99.90
9847;DHT22;68671;50.084;8.794;2023-09-18T11:36:59;27.40;99.90
9847;DHT22;68671;50.084;8.794;2023-09-18T11:39:35;27.40;99.90
9847;DHT22;68671;50.084;8.794;2023-09-18T11:42:10;27.40;99.90
9847;DHT22;68671;50.084;8.794;2023-09-18T11:44:41;27.40;99.90
9847;DHT22;68671;50.084;8.794;2023-09-18T11:47:12;27.40;99.90
9847;DHT22;68671;50.084;8.794;2023-09-18T11:49:51;27.40;99.90
9847;DHT22;68671;50.084;8.794;2023-09-18T11:52:27;27.40;99.90
9847;DHT22;68671;50.084;8.794;2023-09-18T11:54:57;27.50;99.90
9847;DHT22;68671;50.084;8.794;2023-09-18T11:57:31;27.50;99.90
9847;DHT22;68671;50.084;8.794;2023-09-18T12:00:18;27.50;99.90
9847;DHT22;68671;50.084;8.794;2023-09-18T12:02:49;27.50;99.90
9847;DHT22;68671;50.084;8.794;2023-09-18T12:05:18;27.50;99.90
9847;DHT22;68671;50.084;8.794;2023-09-18T12:07:46;27.50;99.90
9847;DHT22;68671;50.084;8.794;2023-09-18T12:10:16;27.50;99.90
9847;DHT22;68671;50.084;8.794;2023-09-18T12:12:44;27.50;99.90
9847;DHT22;68671;50.084;8.794;2023-09-18T12:15:12;27.50;99.90
9847;DHT22;68671;50.084;8.794;2023-09-18T12:17:40;27.50;99.90
9847;DHT22;68671;50.084;8.794;2023-09-18T12:20:14;27.50;99.90
9847;DHT22;68671;50.084;8.794;2023-09-18T12:22:47;27.40;99.90
9847;DHT22;68671;50.084;8.794;2023-09-18T12:25:15;27.40;99.90
9847;DHT22;68671;50.084;8.794;2023-09-18T12:27:44;27.40;99.90
9847;DHT22;68671;50.084;8.794;2023-09-18T12:30:15;27.30;99.90
9847;DHT22;68671;50.084;8.794;2023-09-18T12:32:46;27.30;99.90
9847;DHT22;68671;50.084;8.794;2023-09-18T12:35:14;27.30;99.90
9847;DHT22;68671;50.084;8.794;2023-09-18T12:37:41;27.30;99.90
9847;DHT22;68671;50.084;8.794;2023-09-18T12:40:25;27.30;99.90
9847;DHT22;68671;50.084;8.794;2023-09-18T12:42:54;27.20;99.90
9847;DHT22;68671;50.084;8.794;2023-09-18T12:45:22;27.30;99.90
9847;DHT22;68671;50.084;8.794;2023-09-18T12:47:49;27.30;99.90
9847;DHT22;68671;50.084;8.794;2023-09-18T12:50:18;27.30;99.90
9847;DHT22;68671;50.084;8.794;2023-09-18T12:52:45;27.40;99.90
9847;DHT22;68671;50.084;8.794;2023-09-18T12:55:23;27.40;99.90
9847;DHT22;68671;50.084;8.794;2023-09-18T12:57:51;27.40;99.90
9847;DHT22;68671;50.084;8.794;2023-09-18T13:00:19;27.40;99.90
9847;DHT22;68671;50.084;8.794;2023-09-18T13:02:47;27.50;99.90
9847;DHT22;68671;50.084;8.794;2023-09-18T13:05:19;27.50;99.90
9847;DHT22;68671;50.084;8.794;2023-09-18T13:07:46;27.50;99.90
9847;DHT22;68671;50.084;8.794;2023-09-18T13:10:14;27.50;99.90
9847;DHT22;68671;50.084;8.794;2023-09-18T13:12:45;27.50;99.90
9847;DHT22;68671;50.084;8.794;2023-09-18T13:15:13;27.40;99.90
9847;DHT22;68671;50.084;8.794;2023-09-18T13:17:41;27.40;99.90
9847;DHT22;68671;50.084;8.794;2023-09-18T13:20:12;27.40;99.90
9847;DHT22;68671;50.084;8.794;2023-09-18T13:22:40;27.40;99.90
9847;DHT22;68671;50.084;8.794;2023-09-18T13:25:08;27.40;99.90
9847;DHT22;68671;50.084;8.794;2023-09-18T13:27:36;27.40;99.90
9847;DHT22;68671;50.084;8.794;2023-09-18T13:30:06;27.40;99.90
9847;DHT22;68671;50.084;8.794;2023-09-18T13:32:35;27.40;99.90
9847;DHT22;68671;50.084;8.794;2023-09-18T13:35:02;27.40;99.90
9847;DHT22;68671;50.084;8.794;2023-09-18T13:37:31;27.40;99.90
9847;DHT22;68671;50.084;8.794;2023-09-18T13:39:58;27.40;99.90
9847;DHT22;68671;50.084;8.794;2023-09-18T13:42:28;27.40;99.70
9847;DHT22;68671;50.084;8.794;2023-09-18T13:51:44;27.60;99.10
9847;DHT22;68671;50.084;8.794;2023-09-18T13:54:12;27.50;98.80
9847;DHT22;68671;50.084;8.794;2023-09-18T13:56:42;27.60;98.70
9847;DHT22;68671;50.084;8.794;2023-09-18T13:59:09;27.60;98.50
9847;DHT22;68671;50.084;8.794;2023-09-18T14:01:38;27.60;98.40
9847;DHT22;68671;50.084;8.794;2023-09-18T14:04:05;27.60;98.40
9847;DHT22;68671;50.084;8.794;2023-09-18T14:06:36;27.60;98.20
9847;DHT22;68671;50.084;8.794;2023-09-18T14:09:05;27.60;97.90
9847;DHT22;68671;50.084;8.794;2023-09-18T14:11:32;27.60;97.70
9847;DHT22;68671;50.084;8.794;2023-09-18T14:13:59;27.60;97.10
9847;DHT22;68671;50.084;8.794;2023-09-18T14:16:26;27.50;96.50
9847;DHT22;68671;50.084;8.794;2023-09-18T14:18:53;27.50;96.00
9847;DHT22;68671;50.084;8.794;2023-09-18T14:21:20;27.50;95.90
9847;DHT22;68671;50.084;8.794;2023-09-18T14:23:47;27.50;96.10
9847;DHT22;68671;50.084;8.794;2023-09-18T14:26:16;27.50;96.20
9847;DHT22;68671;50.084;8.794;2023-09-18T14:29:00;27.40;96.20
9847;DHT22;68671;50.084;8.794;2023-09-18T14:31:28;27.40;97.40
9847;DHT22;68671;50.084;8.794;2023-09-18T14:33:55;27.40;97.50
9847;DHT22;68671;50.084;8.794;2023-09-18T14:36:25;27.40;97.40
9847;DHT22;68671;50.084;8.794;2023-09-18T14:38:52;27.40;97.20
9847;DHT22;68671;50.084;8.794;2023-09-18T14:41:22;27.40;97.10
9847;DHT22;68671;50.084;8.794;2023-09-18T14:43:50;27.40;97.30
9847;DHT22;68671;50.084;8.794;2023-09-18T14:46:17;27.40;97.50
9847;DHT22;68671;50.084;8.794;2023-09-18T14:48:45;27.40;97.60
9847;DHT22;68671;50.084;8.794;2023-09-18T14:51:12;27.40;98.00
9847;DHT22;68671;50.084;8.794;2023-09-18T14:53:39;27.40;96.80
9847;DHT22;68671;50.084;8.794;2023-09-18T14:56:06;27.40;96.20
9847;DHT22;68671;50.084;8.794;2023-09-18T14:58:34;27.40;95.90
9847;DHT22;68671;50.084;8.794;2023-09-18T15:01:01;27.30;95.70
9847;DHT22;68671;50.084;8.794;2023-09-18T15:03:28;27.30;95.80
9847;DHT22;68671;50.084;8.794;2023-09-18T15:05:55;27.30;95.90
9847;DHT22;68671;50.084;8.794;2023-09-18T15:08:22;27.30;95.90
9847;DHT22;68671;50.084;8.794;2023-09-18T15:10:51;27.20;95.70
9847;DHT22;68671;50.084;8.794;2023-09-18T15:13:19;27.20;95.80
9847;DHT22;68671;50.084;8.794;2023-09-18T15:15:47;27.20;95.80
9847;DHT22;68671;50.084;8.794;2023-09-18T15:18:14;27.20;95.80
9847;DHT22;68671;50.084;8.794;2023-09-18T15:20:41;27.20;95.80
9847;DHT22;68671;50.084;8.794;2023-09-18T15:23:08;27.20;95.50
9847;DHT22;68671;50.084;8.794;2023-09-18T15:25:35;27.10;95.10
9847;DHT22;68671;50.084;8.794;2023-09-18T15:28:04;27.10;94.90
9847;DHT22;68671;50.084;8.794;2023-09-18T15:30:31;27.10;94.80
9847;DHT22;68671;50.084;8.794;2023-09-18T15:32:59;27.10;94.80
9847;DHT22;68671;50.084;8.794;2023-09-18T15:35:26;27.10;94.70
9847;DHT22;68671;50.084;8.794;2023-09-18T15:37:54;27.00;94.60
9847;DHT22;68671;50.084;8.794;2023-09-18T15:40:21;27.00;94.70
9847;DHT22;68671;50.084;8.794;2023-09-18T15:42:49;27.10;94.80
9847;DHT22;68671;50.084;8.794;2023-09-18T15:45:16;27.00;94.70
9847;DHT22;68671;50.084;8.794;2023-09-18T15:47:44;27.00;94.90
9847;DHT22;68671;50.084;8.794;2023-09-18T15:50:13;27.00;95.00
9847;DHT22;68671;50.084;8.794;2023-09-18T15:52:41;27.00;95.10
9847;DHT22;68671;50.084;8.794;2023-09-18T15:55:08;27.00;95.10
9847;DHT22;68671;50.084;8.794;2023-09-18T15:57:37;27.00;95.00
9847;DHT22;68671;50.084;8.794;2023-09-18T16:00:06;27.00;95.00